Flight Track Log - Related Links

Times and Time Zones

All times are in EDT time to prevent confusion due to time zone crossing. See the CSN6809 flight status page for this flight to view local times or setup timezone preferences in your user account.

Time Position Orientation Groundspeed Altitude Reporting Facility
EDT Latitude Longitude Course Direction KTS MPH feet Rate Location/Type
Wed 05:07:00 AM 43.8532 87.2996 247° West  Level Estimated
Wed 05:08:00 AM 43.7990 87.1253 247° West  Level Estimated
Wed 05:09:00 AM 43.7445 86.9513 247° West  Level Estimated
Wed 05:10:00 AM 43.6897 86.7777 246° West  Level Estimated
Wed 05:11:00 AM 43.6347 86.6043 246° West  Level Estimated
Wed 05:12:00 AM 43.5795 86.4313 246° West  Level Estimated
Wed 05:13:00 AM 43.5240 86.2586 246° West  Level Estimated
Wed 05:14:00 AM 43.4682 86.0862 246° West  Level Estimated
Wed 05:15:00 AM 43.4121 85.9141 246° West  Level Estimated
Wed 05:16:00 AM 43.3558 85.7424 246° West  Level Estimated
Wed 05:17:00 AM 43.2993 85.5709 246° West  Level Estimated
Wed 05:18:00 AM 43.2425 85.3998 246° West  Level Estimated
Wed 05:19:00 AM 43.1854 85.2290 245° Southwest  Level Estimated
Wed 05:20:00 AM 43.1281 85.0585 245° Southwest  Level Estimated
Wed 05:21:00 AM 43.0705 84.8884 245° Southwest  Level Estimated
Wed 05:22:00 AM 43.0127 84.7185 245° Southwest  Level Estimated
Wed 05:23:00 AM 42.9546 84.5490 245° Southwest  Level Estimated
Wed 05:24:00 AM 42.8963 84.3798 245° Southwest  Level Estimated
Wed 05:25:00 AM 42.8377 84.2109 245° Southwest  Level Estimated
Wed 05:26:00 AM 42.7789 84.0424 245° Southwest  Level Estimated
Wed 05:27:00 AM 42.7199 83.8741 245° Southwest  Level Estimated
Wed 05:28:00 AM 42.6605 83.7062 244° Southwest  Level Estimated
Wed 05:29:00 AM 42.6010 83.5386 244° Southwest  Level Estimated
Wed 05:30:00 AM 42.5412 83.3713 244° Southwest  Level Estimated
Wed 05:31:00 AM 42.4812 83.2044 244° Southwest  Level Estimated
Wed 05:32:00 AM 42.4209 83.0378 244° Southwest  Level Estimated
Wed 05:33:00 AM 42.3603 82.8715 244° Southwest  Level Estimated
Wed 05:34:00 AM 42.2996 82.7055 244° Southwest  Level Estimated
Wed 05:35:00 AM 42.2386 82.5398 244° Southwest  Level Estimated
Wed 05:36:00 AM 42.1773 82.3744 243° Southwest  Level Estimated
Wed 05:37:00 AM 42.1158 82.2094 243° Southwest  Level Estimated
Wed 05:38:00 AM 42.0541 82.0447 243° Southwest  Level Estimated
Wed 05:39:00 AM 41.9922 81.8803 243° Southwest  Level Estimated
Wed 05:40:00 AM 41.9300 81.7162 243° Southwest  Level Estimated
Wed 05:41:00 AM 41.8676 81.5525 243° Southwest  Level Estimated
Wed 05:42:00 AM 41.8049 81.3891 243° Southwest  Level Estimated
Wed 05:43:00 AM 41.7421 81.2260 243° Southwest  Level Estimated
Wed 05:44:00 AM 41.6789 81.0632 243° Southwest  Level Estimated
Wed 05:45:00 AM 41.6156 80.9007 243° Southwest  Level Estimated
Wed 05:46:00 AM 41.5520 80.7385 242° Southwest  Level Estimated
Wed 05:47:00 AM 41.4882 80.5767 242° Southwest  Level Estimated
Wed 05:48:00 AM 41.4242 80.4152 242° Southwest  Level Estimated
Wed 05:49:00 AM 41.3600 80.2540 242° Southwest  Level Estimated
Wed 05:50:00 AM 41.2955 80.0931 242° Southwest  Level Estimated
Wed 05:51:00 AM 41.2308 79.9326 242° Southwest  Level Estimated
Wed 05:52:00 AM 41.1659 79.7723 242° Southwest  Level Estimated
Wed 05:53:00 AM 41.1007 79.6124 242° Southwest  Level Estimated
Wed 05:54:00 AM 41.0354 79.4528 242° Southwest  Level Estimated
Wed 05:55:00 AM 40.9698 79.2935 241° Southwest  Level Estimated
Wed 05:56:00 AM 40.9040 79.1346 241° Southwest  Level Estimated
Wed 05:57:00 AM 40.8380 78.9759 241° Southwest  Level Estimated
Wed 05:58:00 AM 40.7717 78.8176 241° Southwest  Level Estimated
Wed 05:59:00 AM 40.7053 78.6596 241° Southwest  Level Estimated
Wed 06:00:00 AM 40.6386 78.5018 241° Southwest  Level Estimated
Wed 06:01:00 AM 40.5717 78.3445 241° Southwest  Level Estimated
Wed 06:02:00 AM 40.5047 78.1874 241° Southwest  Level Estimated
Wed 06:03:00 AM 40.4374 78.0306 241° Southwest  Level Estimated
Wed 06:04:00 AM 40.3698 77.8742 241° Southwest  Level Estimated
Wed 06:05:00 AM 40.3021 77.7180 240° Southwest  Level Estimated
Wed 06:06:00 AM 40.2342 77.5622 240° Southwest  Level Estimated
Wed 06:07:00 AM 40.1660 77.4067 240° Southwest  Level Estimated
Wed 06:08:00 AM 40.0977 77.2515 240° Southwest  Level Estimated
Wed 06:09:00 AM 40.0291 77.0966 240° Southwest  Level Estimated
Wed 06:10:00 AM 39.9604 76.9421 240° Southwest  Level Estimated
Wed 06:11:00 AM 39.8914 76.7878 240° Southwest  Level Estimated
Wed 06:12:00 AM 39.8222 76.6339 240° Southwest  Level Estimated
Wed 06:13:00 AM 39.7528 76.4802 240° Southwest  Level Estimated
Wed 06:14:00 AM 39.6833 76.3269 240° Southwest  Level Estimated
Wed 06:15:00 AM 39.6135 76.1739 239° Southwest  Level Estimated
Wed 06:16:00 AM 39.5435 76.0212 239° Southwest  Level Estimated
Wed 06:17:00 AM 39.5432 76.0206 239° Southwest  Level Estimated
Wed 06:18:00 AM 39.5432 76.0206 252° West  Level Estimated
Wed 06:19:00 AM 39.5432 76.0206 252° West  Level Estimated
Wed 06:20:00 AM 39.5432 76.0206 252° West  Level Estimated
Wed 06:21:00 AM 39.5432 76.0206 252° West  Level Estimated
Wed 06:22:00 AM 39.5432 76.0206 252° West  Level Estimated
Wed 06:23:00 AM 39.5432 76.0206 252° West  Level Estimated
Wed 06:24:00 AM 39.5432 76.0206 252° West  Level Estimated
Wed 06:25:00 AM 39.5432 76.0206 252° West  Level Estimated
Wed 06:26:00 AM 39.5432 76.0206 252° West  Level Estimated
Wed 06:27:00 AM 39.5432 76.0206 252° West  Level Estimated
Wed 06:28:00 AM 39.5432 76.0206 252° West  Level Estimated
Wed 06:29:00 AM 39.5432 76.0206 252° West  Level Estimated
Wed 06:30:00 AM 39.5432 76.0206 252° West  Level Estimated
Wed 06:31:00 AM 39.5432 76.0206 252° West  Level Estimated
Wed 06:32:00 AM 39.5432 76.0206 252° West  Level Estimated

Login

Don't have an account? Register now (free) for customized features, flight alerts, and more!